Terminal Aerodrome Forecast
Issued by NWS Sterling, VA

Current Version | Previous Version | Graphics & Text | Print | Product List | Glossary On
Versions: 1 2 3 4 5 6 7 8 9 10 11 12 13 14 15 16 17 18 19 20 21 22 23 24 25 26 27
000
FTUS41 KLWX 230540
TAFIAD
TAF
KIAD 230540Z 2306/2412 35005KT 6SM -SHRA BKN015 OVC040
     FM230800 34004KT 5SM -SHRA BKN008 OVC040
     FM231200 34005KT 3SM BR BKN008 OVC030
     FM231400 34006KT 5SM BR BKN015 BKN100
     FM231600 35006KT P6SM SCT050 BKN060
     FM231800 35006KT P6SM -SHRA SCT040 BKN045=

USA.gov is the U.S. government's official web portal to all federal, state and local government web resources and services.